createdAt,value
2023-01-19T00:00:34.909Z,72.82
2023-01-19T00:03:03.403Z,72.86
2023-01-19T00:05:30.154Z,73.69
2023-01-19T00:07:57.011Z,73.93
2023-01-19T00:10:23.946Z,73.88
2023-01-19T00:12:50.666Z,74.25
2023-01-19T00:15:17.365Z,74.43
2023-01-19T00:17:44.075Z,74.30
2023-01-19T00:20:11.872Z,74.97
2023-01-19T00:22:38.578Z,74.70
2023-01-19T00:25:05.406Z,74.77
2023-01-19T00:27:35.057Z,75.40
2023-01-19T00:30:02.448Z,75.28
2023-01-19T00:32:29.196Z,74.89
2023-01-19T00:34:55.850Z,74.81
2023-01-19T00:37:22.580Z,75.01
2023-01-19T00:39:49.276Z,75.56
2023-01-19T00:42:34.633Z,75.89
2023-01-19T00:45:01.303Z,75.81
2023-01-19T00:47:28.380Z,75.46
2023-01-19T00:49:55.114Z,75.43
2023-01-19T00:52:21.912Z,75.59
2023-01-19T00:54:48.653Z,75.74
2023-01-19T00:57:16.168Z,75.50
2023-01-19T00:59:43.307Z,75.62
2023-01-19T01:02:11.608Z,75.60
2023-01-19T01:04:38.613Z,75.41
2023-01-19T01:07:05.392Z,75.38
2023-01-19T01:09:32.374Z,75.45
2023-01-19T01:11:59.224Z,75.43
2023-01-19T01:14:26.715Z,75.44
2023-01-19T01:16:53.621Z,76.33
2023-01-19T01:19:20.588Z,75.61
2023-01-19T01:21:47.365Z,75.82
2023-01-19T01:24:14.048Z,75.46
2023-01-19T01:26:40.737Z,75.70
2023-01-19T01:29:08.472Z,75.78
2023-01-19T01:31:35.286Z,76.26
2023-01-19T01:34:02.061Z,76.37
2023-01-19T01:36:32.169Z,76.43
2023-01-19T01:38:59.465Z,76.65
2023-01-19T01:41:27.552Z,76.36
2023-01-19T01:44:00.102Z,76.25
2023-01-19T01:46:28.995Z,76.50
2023-01-19T01:49:10.677Z,76.89
2023-01-19T01:51:53.541Z,77.51
2023-01-19T01:54:23.184Z,77.32
2023-01-19T01:56:52.979Z,77.49
2023-01-19T01:59:26.364Z,77.68
2023-01-19T02:02:14.657Z,78.02
2023-01-19T02:04:52.265Z,78.37
2023-01-19T02:07:48.729Z,79.68
2023-01-19T02:10:33.964Z,78.73
2023-01-19T02:13:21.847Z,78.72
2023-01-19T02:15:57.889Z,78.98
2023-01-19T02:18:28.322Z,79.59
2023-01-19T02:21:24.065Z,78.82
2023-01-19T02:23:51.951Z,78.86
2023-01-19T02:26:22.372Z,78.49
2023-01-19T02:29:04.766Z,78.35
2023-01-19T02:31:33.557Z,77.73
2023-01-19T02:34:02.560Z,77.77
2023-01-19T02:36:35.680Z,77.88
2023-01-19T02:39:04.538Z,77.80
2023-01-19T02:41:36.526Z,77.16
2023-01-19T02:44:06.176Z,77.66
2023-01-19T02:46:33.326Z,77.57
2023-01-19T02:49:01.712Z,77.59
2023-01-19T02:51:32.296Z,77.66
2023-01-19T02:54:04.795Z,77.96
2023-01-19T02:56:37.309Z,77.93
2023-01-19T02:59:14.842Z,78.05
2023-01-19T03:02:09.422Z,78.84
2023-01-19T03:05:00.962Z,78.66
2023-01-19T03:07:52.692Z,78.66
2023-01-19T03:10:34.514Z,78.39
2023-01-19T03:13:31.233Z,77.98
2023-01-19T03:16:09.539Z,78.21
2023-01-19T03:18:38.733Z,78.16
2023-01-19T03:21:07.707Z,78.03
2023-01-19T03:23:38.769Z,78.27
2023-01-19T03:26:09.795Z,78.31
2023-01-19T03:28:40.229Z,78.22
2023-01-19T03:31:17.289Z,78.91
2023-01-19T03:33:50.020Z,79.26
2023-01-19T03:38:58.589Z,79.80
2023-01-19T03:41:28.435Z,79.71
2023-01-19T03:43:56.898Z,79.49
2023-01-19T03:46:26.263Z,79.35
2023-01-19T03:48:53.449Z,78.83
2023-01-19T03:51:21.767Z,79.12
2023-01-19T03:53:50.099Z,79.46
2023-01-19T03:56:22.677Z,78.98
2023-01-19T03:58:49.793Z,78.64
2023-01-19T04:01:17.766Z,78.45
2023-01-19T04:03:44.601Z,78.17
2023-01-19T04:06:11.462Z,77.90
2023-01-19T04:08:38.139Z,77.75
2023-01-19T04:11:05.000Z,77.67
2023-01-19T04:13:31.756Z,77.83
2023-01-19T04:16:03.285Z,77.86
2023-01-19T04:18:33.724Z,78.46
2023-01-19T04:21:02.045Z,78.76
2023-01-19T04:23:28.904Z,78.59
2023-01-19T04:25:59.601Z,78.56
2023-01-19T04:28:27.386Z,78.18
2023-01-19T04:30:54.716Z,78.36
2023-01-19T04:33:22.589Z,78.32
2023-01-19T04:35:52.259Z,78.35
2023-01-19T04:38:20.660Z,78.43
2023-01-19T04:40:49.258Z,78.45
2023-01-19T04:43:16.155Z,78.25
2023-01-19T04:45:44.831Z,78.31
2023-01-19T04:48:12.785Z,77.97
2023-01-19T04:50:39.920Z,78.46
2023-01-19T04:53:06.593Z,79.07
2023-01-19T04:55:33.511Z,79.69
2023-01-19T04:58:00.588Z,80.29
2023-01-19T05:00:28.261Z,80.83
2023-01-19T05:02:55.002Z,81.62
2023-01-19T05:05:21.805Z,81.84
2023-01-19T05:07:48.519Z,81.27
2023-01-19T05:10:15.363Z,81.00
2023-01-19T05:12:42.346Z,81.08
2023-01-19T05:15:10.032Z,80.73
2023-01-19T05:17:37.119Z,82.31
2023-01-19T05:20:04.709Z,81.96
2023-01-19T05:22:31.676Z,81.60
2023-01-19T05:24:58.510Z,81.39
2023-01-19T05:27:25.202Z,81.26
2023-01-19T05:29:52.113Z,81.36
2023-01-19T05:32:18.804Z,81.07
2023-01-19T05:34:45.506Z,80.71
2023-01-19T05:37:12.209Z,80.47
2023-01-19T05:39:38.878Z,80.16
2023-01-19T05:42:05.694Z,79.94
2023-01-19T05:44:32.389Z,79.57
2023-01-19T05:46:59.197Z,79.56
2023-01-19T05:49:25.963Z,79.53
2023-01-19T05:51:52.649Z,79.52
2023-01-19T05:54:19.328Z,79.11
2023-01-19T05:56:46.104Z,78.88
2023-01-19T05:59:12.846Z,78.64
2023-01-19T06:01:40.324Z,78.52
2023-01-19T06:04:10.258Z,78.89
2023-01-19T06:06:36.938Z,78.52
2023-01-19T06:09:03.699Z,78.56
2023-01-19T06:11:30.406Z,78.67
2023-01-19T06:13:57.165Z,78.70
2023-01-19T06:16:23.878Z,78.72
2023-01-19T06:18:50.634Z,78.61
2023-01-19T06:21:17.369Z,78.72
2023-01-19T06:23:44.792Z,78.77
2023-01-19T06:26:11.720Z,78.80
2023-01-19T06:28:38.418Z,78.68
2023-01-19T06:31:05.520Z,78.61
2023-01-19T06:33:32.265Z,78.99
2023-01-19T06:35:58.997Z,78.87
2023-01-19T06:38:26.073Z,78.84
2023-01-19T06:41:02.716Z,78.98
2023-01-19T06:43:29.820Z,78.79
2023-01-19T06:45:56.556Z,80.08
2023-01-19T06:48:23.737Z,80.53
2023-01-19T06:50:50.493Z,80.36
2023-01-19T06:53:17.376Z,80.26
2023-01-19T06:55:44.472Z,81.08
2023-01-19T06:58:11.804Z,80.65
2023-01-19T07:00:38.605Z,80.36
2023-01-19T07:03:09.166Z,80.52
2023-01-19T07:05:36.713Z,80.58
2023-01-19T07:08:04.034Z,80.59
2023-01-19T07:11:24.658Z,80.83
2023-01-19T07:13:17.817Z,80.58
2023-01-19T07:15:44.616Z,80.34
2023-01-19T07:18:11.378Z,80.28
2023-01-19T07:20:38.500Z,80.45
2023-01-19T07:23:05.183Z,81.24
2023-01-19T07:25:32.146Z,80.98
2023-01-19T07:27:59.747Z,80.83
2023-01-19T07:30:27.000Z,80.49
2023-01-19T07:32:58.600Z,80.78
2023-01-19T07:35:26.062Z,80.79
2023-01-19T07:37:52.976Z,81.64
2023-01-19T07:40:19.744Z,81.06
2023-01-19T07:42:48.677Z,81.33
2023-01-19T07:45:17.418Z,82.01
2023-01-19T07:47:51.837Z,82.35
2023-01-19T07:50:21.449Z,81.83
2023-01-19T07:52:50.749Z,81.45
2023-01-19T07:55:17.670Z,81.33
2023-01-19T07:57:44.370Z,81.30
2023-01-19T08:00:11.659Z,81.79
2023-01-19T08:02:41.789Z,81.31
2023-01-19T08:05:09.037Z,80.98
2023-01-19T08:07:35.820Z,81.09
2023-01-19T08:10:02.476Z,80.74
2023-01-19T08:12:29.635Z,80.75
2023-01-19T08:14:56.320Z,80.71
2023-01-19T08:17:22.990Z,80.74
2023-01-19T08:19:49.724Z,80.47
2023-01-19T08:22:16.577Z,80.38
2023-01-19T08:24:43.319Z,80.42
2023-01-19T08:27:10.099Z,80.88
2023-01-19T08:29:37.061Z,80.12
2023-01-19T08:32:04.068Z,80.08
2023-01-19T08:34:31.120Z,79.92
2023-01-19T08:36:58.711Z,80.20
2023-01-19T08:39:28.314Z,80.08
2023-01-19T08:41:55.248Z,79.98
2023-01-19T08:44:22.127Z,80.24
2023-01-19T08:46:48.881Z,79.52
2023-01-19T08:49:15.965Z,79.66
2023-01-19T08:51:46.955Z,80.06
2023-01-19T08:54:14.171Z,79.77
2023-01-19T08:56:41.016Z,79.95
2023-01-19T08:59:10.083Z,79.61
2023-01-19T09:01:37.943Z,79.34
2023-01-19T09:04:05.001Z,79.62
2023-01-19T09:06:32.767Z,79.73
2023-01-19T09:08:59.786Z,79.58
2023-01-19T09:11:30.055Z,79.39
2023-01-19T09:13:56.792Z,79.44
2023-01-19T09:16:23.593Z,79.39
2023-01-19T09:18:50.306Z,79.25
2023-01-19T09:21:17.054Z,79.47
2023-01-19T09:23:43.844Z,78.99
2023-01-19T09:26:10.918Z,79.06
2023-01-19T09:28:38.345Z,78.78
2023-01-19T09:31:07.743Z,78.38
2023-01-19T09:33:35.241Z,77.58
2023-01-19T09:36:02.339Z,78.13
2023-01-19T09:38:32.782Z,77.36
2023-01-19T09:41:00.545Z,77.15
2023-01-19T09:43:42.182Z,76.52
2023-01-19T09:46:14.353Z,75.72
2023-01-19T09:48:48.005Z,75.59
2023-01-19T09:51:28.302Z,75.42
2023-01-19T09:54:15.992Z,74.48
2023-01-19T09:56:44.598Z,74.05
2023-01-19T09:59:21.099Z,73.28
2023-01-19T10:02:12.538Z,74.39
2023-01-19T10:04:44.630Z,73.33
2023-01-19T10:07:32.591Z,73.00
2023-01-19T10:10:08.418Z,72.92
2023-01-19T10:12:35.037Z,72.08
2023-01-19T10:15:39.336Z,72.59
2023-01-19T10:18:17.981Z,72.97
2023-01-19T10:21:15.348Z,71.63
2023-01-19T10:24:08.334Z,71.49
2023-01-19T10:26:43.768Z,70.28
2023-01-19T10:29:25.969Z,70.27
2023-01-19T10:32:01.827Z,71.34
2023-01-19T10:34:28.617Z,69.90
2023-01-19T10:37:04.806Z,69.91
2023-01-19T10:39:31.903Z,69.48
2023-01-19T10:42:02.477Z,68.39
2023-01-19T10:44:35.155Z,69.09
2023-01-19T10:47:02.481Z,68.18
2023-01-19T10:49:29.192Z,68.28
2023-01-19T10:52:00.022Z,67.70
2023-01-19T10:54:30.239Z,68.96
2023-01-19T10:56:59.397Z,69.28
2023-01-19T10:59:51.136Z,67.13
2023-01-19T11:02:27.716Z,67.76
2023-01-19T11:05:21.643Z,66.31
2023-01-19T11:07:48.337Z,67.02
2023-01-19T11:10:17.898Z,66.60
2023-01-19T11:12:54.687Z,66.10
2023-01-19T11:15:24.445Z,66.75
2023-01-19T11:17:52.884Z,65.93
2023-01-19T11:20:29.451Z,65.76
2023-01-19T11:23:18.687Z,64.52
2023-01-19T11:25:48.472Z,65.62
2023-01-19T11:28:32.866Z,63.94
2023-01-19T11:30:59.583Z,63.79
2023-01-19T11:33:43.471Z,63.73
2023-01-19T11:36:26.777Z,64.25
2023-01-19T11:38:56.122Z,65.00
2023-01-19T11:41:35.487Z,63.22
2023-01-19T11:44:29.934Z,63.43
2023-01-19T11:46:59.982Z,63.45
2023-01-19T11:49:51.572Z,63.05
2023-01-19T11:52:27.203Z,62.43
2023-01-19T11:54:56.730Z,62.73
2023-01-19T11:57:23.628Z,61.97
2023-01-19T11:59:50.949Z,63.33
2023-01-19T12:02:30.650Z,63.74
2023-01-19T12:05:04.836Z,63.23
2023-01-19T12:07:35.455Z,62.85
2023-01-19T12:10:25.534Z,63.52
2023-01-19T12:12:53.399Z,63.57
2023-01-19T12:15:35.757Z,63.15
2023-01-19T12:18:05.158Z,63.41
2023-01-19T12:20:37.963Z,62.34
2023-01-19T12:23:10.754Z,63.74
2023-01-19T12:25:55.631Z,62.37
2023-01-19T12:28:32.754Z,62.78
2023-01-19T12:31:02.656Z,62.54
2023-01-19T12:33:29.357Z,63.26
2023-01-19T12:36:00.887Z,62.79
2023-01-19T12:38:43.376Z,62.84
2023-01-19T12:41:27.743Z,63.05
2023-01-19T12:44:09.937Z,63.06
2023-01-19T12:46:47.938Z,63.39
2023-01-19T12:49:31.281Z,62.37
2023-01-19T12:52:10.141Z,62.65
2023-01-19T12:54:37.821Z,63.12
2023-01-19T12:57:16.879Z,63.40
2023-01-19T12:59:43.885Z,64.02
2023-01-19T13:02:42.378Z,64.53
2023-01-19T13:05:15.147Z,65.24
2023-01-19T13:08:03.386Z,64.94
2023-01-19T13:11:09.606Z,64.90
2023-01-19T13:13:36.880Z,65.50
2023-01-19T13:16:18.878Z,65.25
2023-01-19T13:18:50.514Z,65.27
2023-01-19T13:21:30.871Z,65.36
2023-01-19T13:24:03.750Z,64.49
2023-01-19T13:26:38.525Z,64.84
2023-01-19T13:29:15.953Z,64.84
2023-01-19T13:31:49.098Z,65.09
2023-01-19T13:34:23.009Z,64.63
2023-01-19T13:36:59.264Z,64.60
2023-01-19T13:39:44.240Z,64.29
2023-01-19T13:42:30.473Z,64.59
2023-01-19T13:45:05.612Z,63.50
2023-01-19T13:47:49.164Z,63.53
2023-01-19T13:50:20.286Z,64.14
2023-01-19T13:52:48.901Z,63.78
2023-01-19T13:55:16.029Z,63.71
2023-01-19T13:57:45.497Z,64.44
2023-01-19T14:00:12.498Z,64.34
2023-01-19T14:02:42.242Z,64.09
2023-01-19T14:05:15.787Z,64.62
2023-01-19T14:07:42.553Z,63.84
2023-01-19T14:10:15.050Z,63.71
2023-01-19T14:12:58.222Z,64.41
2023-01-19T14:15:26.140Z,64.89
2023-01-19T14:18:11.333Z,64.43
2023-01-19T14:20:38.641Z,64.68
2023-01-19T14:23:06.975Z,64.55
2023-01-19T14:25:36.171Z,64.81
2023-01-19T14:28:28.459Z,64.62
2023-01-19T14:30:57.259Z,64.92
2023-01-19T14:33:58.520Z,63.77
2023-01-19T14:36:36.304Z,64.69
2023-01-19T14:39:04.264Z,65.03
2023-01-19T14:41:36.778Z,64.20
2023-01-19T14:44:09.118Z,64.90
2023-01-19T14:46:36.199Z,64.80
2023-01-19T14:49:06.056Z,64.10
2023-01-19T14:51:33.061Z,64.99
2023-01-19T14:54:01.938Z,64.96
2023-01-19T14:56:31.482Z,64.82
2023-01-19T14:58:59.713Z,64.84
2023-01-19T15:01:31.304Z,64.75
2023-01-19T15:03:58.558Z,64.97
2023-01-19T15:06:26.639Z,64.85
2023-01-19T15:08:54.361Z,64.91
2023-01-19T15:11:29.885Z,64.73
2023-01-19T15:13:56.714Z,65.06
2023-01-19T15:16:26.002Z,65.13
2023-01-19T15:18:52.690Z,64.80
2023-01-19T15:21:23.189Z,65.35
2023-01-19T15:23:50.553Z,65.51
2023-01-19T15:26:19.449Z,65.78
2023-01-19T15:28:48.786Z,66.19
2023-01-19T15:31:18.059Z,66.34
2023-01-19T15:33:45.348Z,66.57
2023-01-19T15:36:18.419Z,66.54
2023-01-19T15:38:45.725Z,66.59
2023-01-19T15:41:14.546Z,66.81
2023-01-19T15:43:41.321Z,66.77
2023-01-19T15:46:11.616Z,66.94
2023-01-19T15:48:38.343Z,66.97
2023-01-19T15:51:12.399Z,67.03
2023-01-19T15:53:40.407Z,67.08
2023-01-19T15:56:11.815Z,67.15
2023-01-19T15:58:38.499Z,67.28
2023-01-19T16:01:05.404Z,66.97
2023-01-19T16:03:32.127Z,67.03
2023-01-19T16:06:01.895Z,67.15
2023-01-19T16:08:28.929Z,67.18
2023-01-19T16:10:55.662Z,67.27
2023-01-19T16:13:22.376Z,67.23
2023-01-19T16:29:11.012Z,66.85
2023-01-19T16:31:39.132Z,66.98
2023-01-19T16:34:06.089Z,67.31
2023-01-19T16:36:35.034Z,67.12
2023-01-19T16:39:13.769Z,67.28
2023-01-19T16:41:40.898Z,67.73
2023-01-19T16:44:09.710Z,67.47
2023-01-19T16:46:40.201Z,67.69
2023-01-19T16:49:15.303Z,67.76
2023-01-19T16:51:42.269Z,67.92
2023-01-19T16:54:13.469Z,68.17
2023-01-19T16:56:40.167Z,68.45
2023-01-19T16:59:07.040Z,68.28
2023-01-19T17:01:33.923Z,68.35
2023-01-19T17:04:00.671Z,68.52
2023-01-19T17:06:30.231Z,68.91
2023-01-19T17:08:57.596Z,69.13
2023-01-19T17:11:27.032Z,69.42
2023-01-19T17:13:54.942Z,69.58
2023-01-19T17:16:23.081Z,69.69
2023-01-19T17:18:50.321Z,69.67
2023-01-19T17:21:18.103Z,69.88
2023-01-19T17:23:47.719Z,69.96
2023-01-19T17:26:15.481Z,69.95
2023-01-19T17:28:42.668Z,70.18
2023-01-19T17:31:18.741Z,70.91
2023-01-19T17:33:47.346Z,70.59
2023-01-19T17:36:20.501Z,70.84
2023-01-19T17:38:47.167Z,71.25
2023-01-19T17:41:26.219Z,70.96
2023-01-19T17:43:53.530Z,71.19
2023-01-19T17:46:23.325Z,71.17
2023-01-19T17:49:03.914Z,71.29
2023-01-19T17:51:31.171Z,72.16
2023-01-19T17:53:58.561Z,71.73
2023-01-19T17:56:29.587Z,72.25
2023-01-19T17:58:57.691Z,72.18
2023-01-19T18:01:30.484Z,71.80
2023-01-19T18:03:58.352Z,71.95
2023-01-19T18:06:25.095Z,72.28
2023-01-19T18:08:52.650Z,72.72
2023-01-19T18:11:20.824Z,72.41
2023-01-19T18:13:49.185Z,72.43
2023-01-19T18:16:19.338Z,73.01
2023-01-19T18:18:46.509Z,73.07
2023-01-19T18:21:14.895Z,73.06
2023-01-19T18:23:46.014Z,73.04
2023-01-19T18:26:18.670Z,73.18
2023-01-19T18:28:45.869Z,72.99
2023-01-19T18:31:16.149Z,73.00
2023-01-19T18:33:43.033Z,73.06
2023-01-19T18:36:10.590Z,73.49
2023-01-19T18:38:39.211Z,73.63
2023-01-19T18:41:08.848Z,73.18
2023-01-19T18:43:35.746Z,73.82
2023-01-19T18:46:02.754Z,73.66
2023-01-19T18:48:29.742Z,73.66
2023-01-19T18:50:56.664Z,74.04
2023-01-19T18:53:23.954Z,73.74
2023-01-19T18:55:58.710Z,73.76
2023-01-19T18:58:28.625Z,74.13
2023-01-19T19:00:56.260Z,73.98
2023-01-19T19:03:23.454Z,73.57
2023-01-19T19:05:50.322Z,73.64
2023-01-19T19:08:17.046Z,73.15
2023-01-19T19:10:44.025Z,73.26
2023-01-19T19:13:13.285Z,73.48
2023-01-19T19:15:40.174Z,73.65
2023-01-19T19:18:09.015Z,73.11
2023-01-19T19:20:39.311Z,73.50
2023-01-19T19:23:06.142Z,72.98
2023-01-19T19:25:33.155Z,73.17
2023-01-19T19:27:59.851Z,73.17
2023-01-19T19:30:26.875Z,72.84
2023-01-19T19:32:56.069Z,72.66
2023-01-19T19:35:23.831Z,72.79
2023-01-19T19:37:51.534Z,73.08
2023-01-19T19:40:18.327Z,73.05
2023-01-19T19:42:45.136Z,72.59
2023-01-19T19:45:12.343Z,72.45
2023-01-19T19:47:39.049Z,72.29
2023-01-19T19:50:06.009Z,72.37
2023-01-19T19:52:38.043Z,72.01
2023-01-19T19:55:06.586Z,71.89
2023-01-19T19:57:33.301Z,71.97
2023-01-19T19:59:59.970Z,72.25
2023-01-19T20:02:26.680Z,72.17
2023-01-19T20:04:53.620Z,72.25
2023-01-19T20:07:20.299Z,72.55
2023-01-19T20:09:47.427Z,72.29
2023-01-19T20:12:14.148Z,72.25
2023-01-19T20:14:40.932Z,72.19
2023-01-19T20:17:07.631Z,72.08
2023-01-19T20:19:34.329Z,72.08
2023-01-19T20:22:00.952Z,72.12
2023-01-19T20:24:28.060Z,72.18
2023-01-19T20:26:56.328Z,72.45
2023-01-19T20:29:23.319Z,72.47
2023-01-19T20:31:55.521Z,72.68
2023-01-19T20:34:25.528Z,72.66
2023-01-19T20:36:53.967Z,72.44
2023-01-19T20:39:22.779Z,72.68
2023-01-19T20:41:51.364Z,72.44
2023-01-19T20:44:23.675Z,72.51
2023-01-19T20:46:52.676Z,72.36
2023-01-19T20:49:19.745Z,72.37
2023-01-19T20:51:47.062Z,72.08
2023-01-19T20:54:16.009Z,71.90
2023-01-19T20:56:42.717Z,71.93
2023-01-19T20:59:11.408Z,72.09
2023-01-19T21:01:39.026Z,71.74
2023-01-19T21:04:05.882Z,71.81
2023-01-19T21:06:33.124Z,71.75
2023-01-19T21:08:59.844Z,71.74
2023-01-19T21:11:26.925Z,71.49
2023-01-19T21:13:56.250Z,71.62
2023-01-19T21:16:24.382Z,71.27
2023-01-19T21:18:51.308Z,71.50
2023-01-19T21:21:29.850Z,71.70
2023-01-19T21:23:59.204Z,72.16
2023-01-19T21:26:26.107Z,72.21
2023-01-19T21:28:52.926Z,72.28
2023-01-19T21:31:22.669Z,72.14
2023-01-19T21:33:53.413Z,72.43
2023-01-19T21:36:21.287Z,72.31
2023-01-19T21:38:48.412Z,72.41
2023-01-19T21:41:16.388Z,72.37
2023-01-19T21:43:43.520Z,72.19
2023-01-19T21:46:20.710Z,72.61
2023-01-19T21:48:47.916Z,72.28
2023-01-19T21:51:15.751Z,72.15
2023-01-19T21:53:43.563Z,72.34
2023-01-19T21:56:11.318Z,72.28
2023-01-19T21:58:38.447Z,72.27
2023-01-19T22:01:10.840Z,72.26
2023-01-19T22:03:37.823Z,72.32
2023-01-19T22:06:06.387Z,72.07
2023-01-19T22:08:33.591Z,72.17
2023-01-19T22:11:05.294Z,72.21
2023-01-19T22:13:33.290Z,72.23
2023-01-19T22:16:04.295Z,72.20
2023-01-19T22:18:31.042Z,72.14
2023-01-19T22:21:36.188Z,72.36
2023-01-19T22:24:04.584Z,72.15
2023-01-19T22:26:34.099Z,72.34
2023-01-19T22:29:03.167Z,72.64
2023-01-19T22:31:30.942Z,72.67
2023-01-19T22:33:58.016Z,72.57
2023-01-19T22:36:25.859Z,72.95
2023-01-19T22:38:53.718Z,72.99
2023-01-19T22:41:29.577Z,72.77
2023-01-19T22:43:58.445Z,72.49
2023-01-19T22:46:27.892Z,72.33
2023-01-19T22:48:55.409Z,72.65
2023-01-19T22:51:23.550Z,72.54
2023-01-19T22:53:50.714Z,72.47
2023-01-19T22:56:21.758Z,72.32
2023-01-19T22:58:49.283Z,72.09
2023-01-19T23:01:19.411Z,72.48
2023-01-19T23:03:46.431Z,72.42
2023-01-19T23:06:16.486Z,72.94
2023-01-19T23:08:43.740Z,73.32
2023-01-19T23:11:15.995Z,73.80
2023-01-19T23:13:43.152Z,73.92
2023-01-19T23:16:10.784Z,73.71
2023-01-19T23:18:38.177Z,73.94
2023-01-19T23:21:11.007Z,74.12
2023-01-19T23:23:38.421Z,74.33
2023-01-19T23:26:10.607Z,74.30
2023-01-19T23:28:38.043Z,73.93
2023-01-19T23:31:22.548Z,74.27
2023-01-19T23:33:50.884Z,73.76
2023-01-19T23:36:18.699Z,74.37
2023-01-19T23:38:53.912Z,74.39
2023-01-19T23:41:21.231Z,74.14
2023-01-19T23:43:47.927Z,74.09
2023-01-19T23:46:15.727Z,74.27
2023-01-19T23:48:42.626Z,74.14
2023-01-19T23:51:12.686Z,74.18
2023-01-19T23:53:39.812Z,74.07
2023-01-19T23:56:26.189Z,74.39
2023-01-19T23:58:55.570Z,74.58
